Terminal Aerodrome Forecast
Issued by NWS Greer, SC

Current Version | Previous Version | Text Only | Print | Product List | Glossary On
Versions: 1 2 3 4 5 6 7 8 9 10 11 12 13
000
FTUS42 KGSP 222330
TAFGSP
TAF
KGSP 222330Z 2300/2324 00000KT P6SM BKN250
     FM230600 01004KT P6SM OVC110
     FM231100 03007KT P6SM -RA OVC050
     FM231300 03007KT 6SM -RA OVC016
     FM231500 04008KT 2SM -RA BR OVC007
     FM232200 05010KT 1 1/2SM -RA BR OVC002=

USA.gov is the U.S. government's official web portal to all federal, state and local government web resources and services.